sensor_id;sensor_type;location;lat;lon;timestamp;P1;durP1;ratioP1;P2;durP2;ratioP2
8060;SDS011;4073;42.626;25.386;2023-08-30T00:01:04;7.80;;;6.80;;
8060;SDS011;4073;42.626;25.386;2023-08-30T00:03:29;9.87;;;7.80;;
8060;SDS011;4073;42.626;25.386;2023-08-30T00:05:55;8.67;;;6.97;;
8060;SDS011;4073;42.626;25.386;2023-08-30T00:08:20;12.20;;;8.77;;
8060;SDS011;4073;42.626;25.386;2023-08-30T00:10:46;11.20;;;7.77;;
8060;SDS011;4073;42.626;25.386;2023-08-30T00:13:12;8.43;;;7.43;;
8060;SDS011;4073;42.626;25.386;2023-08-30T00:15:38;8.43;;;7.60;;
8060;SDS011;4073;42.626;25.386;2023-08-30T00:18:03;12.30;;;7.93;;
8060;SDS011;4073;42.626;25.386;2023-08-30T00:20:29;9.13;;;8.23;;
8060;SDS011;4073;42.626;25.386;2023-08-30T00:22:54;10.57;;;7.60;;
8060;SDS011;4073;42.626;25.386;2023-08-30T00:25:20;8.63;;;7.70;;
8060;SDS011;4073;42.626;25.386;2023-08-30T00:27:45;10.70;;;8.07;;
8060;SDS011;4073;42.626;25.386;2023-08-30T00:30:11;11.53;;;8.33;;
8060;SDS011;4073;42.626;25.386;2023-08-30T00:32:37;11.07;;;7.70;;
8060;SDS011;4073;42.626;25.386;2023-08-30T00:35:02;11.93;;;8.67;;
8060;SDS011;4073;42.626;25.386;2023-08-30T00:37:28;13.27;;;9.43;;
8060;SDS011;4073;42.626;25.386;2023-08-30T00:39:53;9.63;;;8.43;;
8060;SDS011;4073;42.626;25.386;2023-08-30T00:42:19;8.80;;;7.93;;
8060;SDS011;4073;42.626;25.386;2023-08-30T00:44:44;9.97;;;7.73;;
8060;SDS011;4073;42.626;25.386;2023-08-30T00:47:10;8.60;;;7.80;;
8060;SDS011;4073;42.626;25.386;2023-08-30T00:49:36;9.03;;;8.13;;
8060;SDS011;4073;42.626;25.386;2023-08-30T00:52:02;8.00;;;7.30;;
8060;SDS011;4073;42.626;25.386;2023-08-30T00:54:31;8.80;;;7.90;;
8060;SDS011;4073;42.626;25.386;2023-08-30T00:56:57;9.20;;;7.90;;
8060;SDS011;4073;42.626;25.386;2023-08-30T00:59:23;8.70;;;7.87;;
8060;SDS011;4073;42.626;25.386;2023-08-30T01:01:49;8.57;;;7.10;;
8060;SDS011;4073;42.626;25.386;2023-08-30T01:04:15;9.60;;;7.37;;
8060;SDS011;4073;42.626;25.386;2023-08-30T01:06:41;9.10;;;7.90;;
8060;SDS011;4073;42.626;25.386;2023-08-30T01:09:07;8.47;;;7.60;;
8060;SDS011;4073;42.626;25.386;2023-08-30T01:17:11;9.43;;;7.67;;
8060;SDS011;4073;42.626;25.386;2023-08-30T01:19:55;10.93;;;7.70;;
8060;SDS011;4073;42.626;25.386;2023-08-30T01:27:31;8.33;;;7.53;;
8060;SDS011;4073;42.626;25.386;2023-08-30T01:30:00;9.23;;;7.33;;
8060;SDS011;4073;42.626;25.386;2023-08-30T01:32:28;9.77;;;7.90;;
8060;SDS011;4073;42.626;25.386;2023-08-30T01:34:55;10.67;;;8.53;;
8060;SDS011;4073;42.626;25.386;2023-08-30T01:37:21;12.07;;;8.87;;
8060;SDS011;4073;42.626;25.386;2023-08-30T01:39:48;9.83;;;8.87;;
8060;SDS011;4073;42.626;25.386;2023-08-30T01:42:14;9.10;;;8.30;;
8060;SDS011;4073;42.626;25.386;2023-08-30T01:44:40;8.40;;;7.70;;
8060;SDS011;4073;42.626;25.386;2023-08-30T01:47:09;12.00;;;8.23;;
8060;SDS011;4073;42.626;25.386;2023-08-30T01:49:36;8.23;;;7.43;;
8060;SDS011;4073;42.626;25.386;2023-08-30T01:52:04;8.63;;;7.40;;
8060;SDS011;4073;42.626;25.386;2023-08-30T01:54:31;10.67;;;7.83;;
8060;SDS011;4073;42.626;25.386;2023-08-30T01:56:57;9.43;;;8.50;;
8060;SDS011;4073;42.626;25.386;2023-08-30T01:59:25;9.17;;;7.57;;
8060;SDS011;4073;42.626;25.386;2023-08-30T02:01:53;9.63;;;8.17;;
8060;SDS011;4073;42.626;25.386;2023-08-30T02:04:19;10.47;;;8.47;;
8060;SDS011;4073;42.626;25.386;2023-08-30T02:06:45;9.87;;;7.90;;
8060;SDS011;4073;42.626;25.386;2023-08-30T02:09:21;8.77;;;7.80;;
8060;SDS011;4073;42.626;25.386;2023-08-30T02:11:52;10.80;;;8.10;;
8060;SDS011;4073;42.626;25.386;2023-08-30T02:14:20;9.30;;;7.73;;
8060;SDS011;4073;42.626;25.386;2023-08-30T02:16:47;9.03;;;8.23;;
8060;SDS011;4073;42.626;25.386;2023-08-30T02:19:13;9.47;;;8.47;;
8060;SDS011;4073;42.626;25.386;2023-08-30T02:21:45;13.67;;;8.97;;
8060;SDS011;4073;42.626;25.386;2023-08-30T02:24:12;9.87;;;8.70;;
8060;SDS011;4073;42.626;25.386;2023-08-30T02:26:38;12.53;;;7.83;;
8060;SDS011;4073;42.626;25.386;2023-08-30T02:29:03;10.27;;;8.37;;
8060;SDS011;4073;42.626;25.386;2023-08-30T02:31:29;9.53;;;8.53;;
8060;SDS011;4073;42.626;25.386;2023-08-30T02:33:55;10.17;;;8.70;;
8060;SDS011;4073;42.626;25.386;2023-08-30T02:36:20;8.83;;;7.93;;
8060;SDS011;4073;42.626;25.386;2023-08-30T02:38:45;9.70;;;8.17;;
8060;SDS011;4073;42.626;25.386;2023-08-30T02:41:11;10.30;;;8.33;;
8060;SDS011;4073;42.626;25.386;2023-08-30T02:43:37;11.93;;;8.93;;
8060;SDS011;4073;42.626;25.386;2023-08-30T02:46:03;13.07;;;9.20;;
8060;SDS011;4073;42.626;25.386;2023-08-30T02:48:30;9.10;;;8.17;;
8060;SDS011;4073;42.626;25.386;2023-08-30T02:50:56;14.70;;;8.90;;
8060;SDS011;4073;42.626;25.386;2023-08-30T02:53:22;10.07;;;7.87;;
8060;SDS011;4073;42.626;25.386;2023-08-30T02:55:48;11.43;;;9.00;;
8060;SDS011;4073;42.626;25.386;2023-08-30T02:58:13;10.37;;;9.10;;
8060;SDS011;4073;42.626;25.386;2023-08-30T03:00:39;9.47;;;8.10;;
8060;SDS011;4073;42.626;25.386;2023-08-30T03:03:04;13.03;;;8.93;;
8060;SDS011;4073;42.626;25.386;2023-08-30T03:05:30;12.67;;;8.60;;
8060;SDS011;4073;42.626;25.386;2023-08-30T03:07:55;9.10;;;8.13;;
8060;SDS011;4073;42.626;25.386;2023-08-30T03:10:21;10.67;;;9.20;;
8060;SDS011;4073;42.626;25.386;2023-08-30T03:12:46;9.90;;;9.00;;
8060;SDS011;4073;42.626;25.386;2023-08-30T03:15:12;14.03;;;9.13;;
8060;SDS011;4073;42.626;25.386;2023-08-30T03:17:37;10.77;;;8.93;;
8060;SDS011;4073;42.626;25.386;2023-08-30T03:20:03;10.57;;;8.37;;
8060;SDS011;4073;42.626;25.386;2023-08-30T03:22:30;11.13;;;7.97;;
8060;SDS011;4073;42.626;25.386;2023-08-30T03:24:56;9.83;;;8.90;;
8060;SDS011;4073;42.626;25.386;2023-08-30T03:27:21;12.10;;;9.03;;
8060;SDS011;4073;42.626;25.386;2023-08-30T03:29:47;10.63;;;9.40;;
8060;SDS011;4073;42.626;25.386;2023-08-30T03:32:19;9.63;;;8.57;;
8060;SDS011;4073;42.626;25.386;2023-08-30T03:34:45;10.13;;;8.33;;
8060;SDS011;4073;42.626;25.386;2023-08-30T03:37:11;13.00;;;9.53;;
8060;SDS011;4073;42.626;25.386;2023-08-30T03:39:38;8.73;;;7.93;;
8060;SDS011;4073;42.626;25.386;2023-08-30T03:42:03;10.37;;;9.33;;
8060;SDS011;4073;42.626;25.386;2023-08-30T03:44:29;10.70;;;8.27;;
8060;SDS011;4073;42.626;25.386;2023-08-30T03:46:54;10.20;;;8.67;;
8060;SDS011;4073;42.626;25.386;2023-08-30T03:49:21;16.90;;;9.33;;
8060;SDS011;4073;42.626;25.386;2023-08-30T03:51:47;10.27;;;9.23;;
8060;SDS011;4073;42.626;25.386;2023-08-30T03:54:13;9.73;;;8.83;;
8060;SDS011;4073;42.626;25.386;2023-08-30T03:56:41;9.90;;;8.70;;
8060;SDS011;4073;42.626;25.386;2023-08-30T03:59:10;9.70;;;8.90;;
8060;SDS011;4073;42.626;25.386;2023-08-30T04:01:36;10.33;;;9.43;;
8060;SDS011;4073;42.626;25.386;2023-08-30T04:04:02;10.93;;;8.40;;
8060;SDS011;4073;42.626;25.386;2023-08-30T04:06:27;13.83;;;9.60;;
8060;SDS011;4073;42.626;25.386;2023-08-30T04:08:53;10.50;;;9.40;;
8060;SDS011;4073;42.626;25.386;2023-08-30T04:11:18;11.33;;;8.90;;
8060;SDS011;4073;42.626;25.386;2023-08-30T04:13:44;12.47;;;8.60;;
8060;SDS011;4073;42.626;25.386;2023-08-30T04:16:10;12.23;;;9.40;;
8060;SDS011;4073;42.626;25.386;2023-08-30T04:18:35;10.93;;;9.67;;
8060;SDS011;4073;42.626;25.386;2023-08-30T04:21:01;11.07;;;9.47;;
8060;SDS011;4073;42.626;25.386;2023-08-30T04:23:27;16.00;;;9.33;;
8060;SDS011;4073;42.626;25.386;2023-08-30T04:25:54;11.10;;;9.13;;
8060;SDS011;4073;42.626;25.386;2023-08-30T04:28:20;11.63;;;9.70;;
8060;SDS011;4073;42.626;25.386;2023-08-30T04:30:45;11.40;;;10.07;;
8060;SDS011;4073;42.626;25.386;2023-08-30T04:33:11;11.03;;;9.67;;
8060;SDS011;4073;42.626;25.386;2023-08-30T04:35:36;12.53;;;10.20;;
8060;SDS011;4073;42.626;25.386;2023-08-30T04:38:02;10.93;;;9.90;;
8060;SDS011;4073;42.626;25.386;2023-08-30T04:40:28;16.07;;;10.20;;
8060;SDS011;4073;42.626;25.386;2023-08-30T04:42:55;10.80;;;9.77;;
8060;SDS011;4073;42.626;25.386;2023-08-30T04:45:21;11.10;;;9.37;;
8060;SDS011;4073;42.626;25.386;2023-08-30T04:47:47;13.50;;;9.87;;
8060;SDS011;4073;42.626;25.386;2023-08-30T04:50:13;11.17;;;9.60;;
8060;SDS011;4073;42.626;25.386;2023-08-30T04:52:38;13.50;;;9.67;;
8060;SDS011;4073;42.626;25.386;2023-08-30T04:55:04;10.77;;;9.67;;
8060;SDS011;4073;42.626;25.386;2023-08-30T04:57:30;13.30;;;9.93;;
8060;SDS011;4073;42.626;25.386;2023-08-30T04:59:55;11.70;;;9.83;;
8060;SDS011;4073;42.626;25.386;2023-08-30T05:02:22;14.60;;;10.93;;
8060;SDS011;4073;42.626;25.386;2023-08-30T05:04:47;13.77;;;10.07;;
8060;SDS011;4073;42.626;25.386;2023-08-30T05:07:13;15.90;;;10.20;;
8060;SDS011;4073;42.626;25.386;2023-08-30T05:09:38;11.40;;;10.00;;
8060;SDS011;4073;42.626;25.386;2023-08-30T05:12:05;12.77;;;9.33;;
8060;SDS011;4073;42.626;25.386;2023-08-30T05:14:31;9.50;;;8.23;;
8060;SDS011;4073;42.626;25.386;2023-08-30T05:16:57;10.57;;;9.47;;
8060;SDS011;4073;42.626;25.386;2023-08-30T05:19:22;13.27;;;9.97;;
8060;SDS011;4073;42.626;25.386;2023-08-30T05:21:48;11.60;;;9.70;;
8060;SDS011;4073;42.626;25.386;2023-08-30T05:24:16;12.73;;;9.33;;
8060;SDS011;4073;42.626;25.386;2023-08-30T05:26:42;11.83;;;9.90;;
8060;SDS011;4073;42.626;25.386;2023-08-30T05:29:07;14.43;;;10.37;;
8060;SDS011;4073;42.626;25.386;2023-08-30T05:31:33;11.23;;;10.03;;
8060;SDS011;4073;42.626;25.386;2023-08-30T05:33:58;11.90;;;10.17;;
8060;SDS011;4073;42.626;25.386;2023-08-30T05:36:24;18.13;;;10.93;;
8060;SDS011;4073;42.626;25.386;2023-08-30T05:38:50;10.50;;;9.50;;
8060;SDS011;4073;42.626;25.386;2023-08-30T05:41:16;11.53;;;10.07;;
8060;SDS011;4073;42.626;25.386;2023-08-30T05:43:41;12.63;;;10.37;;
8060;SDS011;4073;42.626;25.386;2023-08-30T05:46:07;12.80;;;9.47;;
8060;SDS011;4073;42.626;25.386;2023-08-30T05:48:39;10.60;;;9.50;;
8060;SDS011;4073;42.626;25.386;2023-08-30T05:51:05;12.73;;;9.73;;
8060;SDS011;4073;42.626;25.386;2023-08-30T05:53:30;10.97;;;9.30;;
8060;SDS011;4073;42.626;25.386;2023-08-30T05:55:56;10.27;;;9.37;;
8060;SDS011;4073;42.626;25.386;2023-08-30T05:58:21;10.70;;;9.33;;
8060;SDS011;4073;42.626;25.386;2023-08-30T06:00:46;10.53;;;8.70;;
8060;SDS011;4073;42.626;25.386;2023-08-30T06:03:12;9.27;;;8.37;;
8060;SDS011;4073;42.626;25.386;2023-08-30T06:05:37;12.80;;;8.70;;
8060;SDS011;4073;42.626;25.386;2023-08-30T06:08:03;9.80;;;8.80;;
8060;SDS011;4073;42.626;25.386;2023-08-30T06:10:29;13.93;;;9.30;;
8060;SDS011;4073;42.626;25.386;2023-08-30T06:12:54;12.47;;;8.87;;
8060;SDS011;4073;42.626;25.386;2023-08-30T06:15:20;12.93;;;9.47;;
8060;SDS011;4073;42.626;25.386;2023-08-30T06:17:45;13.47;;;8.47;;
8060;SDS011;4073;42.626;25.386;2023-08-30T06:20:12;10.63;;;8.90;;
8060;SDS011;4073;42.626;25.386;2023-08-30T06:22:38;11.03;;;8.90;;
8060;SDS011;4073;42.626;25.386;2023-08-30T06:25:04;11.43;;;9.17;;
8060;SDS011;4073;42.626;25.386;2023-08-30T06:27:31;9.80;;;8.73;;
8060;SDS011;4073;42.626;25.386;2023-08-30T06:29:57;9.40;;;8.33;;
8060;SDS011;4073;42.626;25.386;2023-08-30T06:32:22;9.53;;;8.53;;
8060;SDS011;4073;42.626;25.386;2023-08-30T06:34:48;9.80;;;8.20;;
8060;SDS011;4073;42.626;25.386;2023-08-30T06:37:14;9.77;;;7.93;;
8060;SDS011;4073;42.626;25.386;2023-08-30T06:39:39;9.10;;;8.10;;
8060;SDS011;4073;42.626;25.386;2023-08-30T06:42:05;8.70;;;7.40;;
8060;SDS011;4073;42.626;25.386;2023-08-30T06:44:30;9.80;;;8.43;;
8060;SDS011;4073;42.626;25.386;2023-08-30T06:46:56;8.50;;;7.60;;
8060;SDS011;4073;42.626;25.386;2023-08-30T06:49:22;9.07;;;7.37;;
8060;SDS011;4073;42.626;25.386;2023-08-30T06:51:48;9.67;;;7.47;;
8060;SDS011;4073;42.626;25.386;2023-08-30T06:54:14;8.50;;;7.60;;
8060;SDS011;4073;42.626;25.386;2023-08-30T06:56:39;7.93;;;7.13;;
8060;SDS011;4073;42.626;25.386;2023-08-30T06:59:05;11.03;;;7.90;;
8060;SDS011;4073;42.626;25.386;2023-08-30T07:01:30;15.00;;;8.47;;
8060;SDS011;4073;42.626;25.386;2023-08-30T07:03:56;16.67;;;10.93;;
8060;SDS011;4073;42.626;25.386;2023-08-30T07:06:21;37.40;;;21.17;;
8060;SDS011;4073;42.626;25.386;2023-08-30T07:08:46;23.57;;;13.77;;
8060;SDS011;4073;42.626;25.386;2023-08-30T07:11:12;18.97;;;11.77;;
8060;SDS011;4073;42.626;25.386;2023-08-30T07:13:37;17.30;;;11.73;;
8060;SDS011;4073;42.626;25.386;2023-08-30T07:16:03;10.40;;;9.07;;
8060;SDS011;4073;42.626;25.386;2023-08-30T07:18:29;15.10;;;8.10;;
8060;SDS011;4073;42.626;25.386;2023-08-30T07:20:54;13.63;;;8.13;;
8060;SDS011;4073;42.626;25.386;2023-08-30T07:23:20;11.30;;;8.67;;
8060;SDS011;4073;42.626;25.386;2023-08-30T07:25:45;8.30;;;7.50;;
8060;SDS011;4073;42.626;25.386;2023-08-30T07:28:10;7.53;;;6.83;;
8060;SDS011;4073;42.626;25.386;2023-08-30T07:30:36;11.63;;;8.03;;
8060;SDS011;4073;42.626;25.386;2023-08-30T07:33:03;8.50;;;7.60;;
8060;SDS011;4073;42.626;25.386;2023-08-30T07:35:29;8.10;;;7.30;;
8060;SDS011;4073;42.626;25.386;2023-08-30T07:37:55;11.93;;;8.30;;
8060;SDS011;4073;42.626;25.386;2023-08-30T07:40:20;10.17;;;8.30;;
8060;SDS011;4073;42.626;25.386;2023-08-30T07:42:49;9.90;;;7.67;;
8060;SDS011;4073;42.626;25.386;2023-08-30T07:45:15;11.97;;;8.53;;
8060;SDS011;4073;42.626;25.386;2023-08-30T07:47:40;8.77;;;7.80;;
8060;SDS011;4073;42.626;25.386;2023-08-30T07:50:06;8.93;;;8.03;;
8060;SDS011;4073;42.626;25.386;2023-08-30T07:52:32;12.57;;;7.93;;
8060;SDS011;4073;42.626;25.386;2023-08-30T07:54:57;8.83;;;7.90;;
8060;SDS011;4073;42.626;25.386;2023-08-30T07:57:23;7.80;;;6.80;;
8060;SDS011;4073;42.626;25.386;2023-08-30T07:59:48;8.80;;;7.40;;
8060;SDS011;4073;42.626;25.386;2023-08-30T08:02:14;9.73;;;8.50;;
8060;SDS011;4073;42.626;25.386;2023-08-30T08:04:39;10.63;;;7.57;;
8060;SDS011;4073;42.626;25.386;2023-08-30T08:07:05;11.43;;;7.73;;
8060;SDS011;4073;42.626;25.386;2023-08-30T08:09:30;10.13;;;8.20;;
8060;SDS011;4073;42.626;25.386;2023-08-30T08:11:57;9.67;;;8.13;;
8060;SDS011;4073;42.626;25.386;2023-08-30T08:14:23;9.50;;;8.50;;
8060;SDS011;4073;42.626;25.386;2023-08-30T08:16:49;10.43;;;8.43;;
8060;SDS011;4073;42.626;25.386;2023-08-30T08:19:14;10.73;;;8.67;;
8060;SDS011;4073;42.626;25.386;2023-08-30T08:21:40;9.57;;;8.53;;
8060;SDS011;4073;42.626;25.386;2023-08-30T08:24:05;8.87;;;7.97;;
8060;SDS011;4073;42.626;25.386;2023-08-30T08:26:31;10.90;;;8.30;;
8060;SDS011;4073;42.626;25.386;2023-08-30T08:28:57;9.00;;;7.80;;
8060;SDS011;4073;42.626;25.386;2023-08-30T08:31:22;10.40;;;7.60;;
8060;SDS011;4073;42.626;25.386;2023-08-30T08:33:51;7.17;;;6.57;;
8060;SDS011;4073;42.626;25.386;2023-08-30T08:36:32;7.17;;;6.47;;
8060;SDS011;4073;42.626;25.386;2023-08-30T08:38:57;12.20;;;7.40;;
8060;SDS011;4073;42.626;25.386;2023-08-30T08:41:23;7.23;;;6.43;;
8060;SDS011;4073;42.626;25.386;2023-08-30T08:43:56;7.70;;;6.87;;
8060;SDS011;4073;42.626;25.386;2023-08-30T08:46:22;7.87;;;7.07;;
8060;SDS011;4073;42.626;25.386;2023-08-30T08:48:48;7.83;;;6.97;;
8060;SDS011;4073;42.626;25.386;2023-08-30T08:51:16;8.77;;;6.13;;
8060;SDS011;4073;42.626;25.386;2023-08-30T08:53:42;9.17;;;6.63;;
8060;SDS011;4073;42.626;25.386;2023-08-30T08:56:08;8.13;;;6.07;;
8060;SDS011;4073;42.626;25.386;2023-08-30T08:58:36;9.10;;;6.87;;
8060;SDS011;4073;42.626;25.386;2023-08-30T09:01:03;8.10;;;6.20;;
8060;SDS011;4073;42.626;25.386;2023-08-30T09:03:29;6.73;;;6.03;;
8060;SDS011;4073;42.626;25.386;2023-08-30T09:05:55;7.10;;;5.80;;
8060;SDS011;4073;42.626;25.386;2023-08-30T09:08:21;7.87;;;6.37;;
8060;SDS011;4073;42.626;25.386;2023-08-30T09:10:46;8.37;;;7.50;;
8060;SDS011;4073;42.626;25.386;2023-08-30T09:13:15;9.27;;;6.30;;
8060;SDS011;4073;42.626;25.386;2023-08-30T09:15:41;7.90;;;6.57;;
8060;SDS011;4073;42.626;25.386;2023-08-30T09:18:16;8.50;;;5.90;;
8060;SDS011;4073;42.626;25.386;2023-08-30T09:20:42;7.83;;;6.17;;
8060;SDS011;4073;42.626;25.386;2023-08-30T09:23:16;10.60;;;7.23;;
8060;SDS011;4073;42.626;25.386;2023-08-30T09:25:42;6.90;;;6.30;;
8060;SDS011;4073;42.626;25.386;2023-08-30T09:28:09;9.10;;;6.67;;
8060;SDS011;4073;42.626;25.386;2023-08-30T09:30:35;10.50;;;6.53;;
8060;SDS011;4073;42.626;25.386;2023-08-30T09:33:01;6.63;;;6.07;;
8060;SDS011;4073;42.626;25.386;2023-08-30T09:35:30;6.23;;;5.63;;
8060;SDS011;4073;42.626;25.386;2023-08-30T09:37:56;6.87;;;6.20;;
8060;SDS011;4073;42.626;25.386;2023-08-30T09:40:22;6.83;;;6.10;;
8060;SDS011;4073;42.626;25.386;2023-08-30T09:42:48;7.93;;;6.43;;
8060;SDS011;4073;42.626;25.386;2023-08-30T09:45:17;6.83;;;6.10;;
8060;SDS011;4073;42.626;25.386;2023-08-30T09:47:46;6.53;;;5.77;;
8060;SDS011;4073;42.626;25.386;2023-08-30T09:50:12;12.27;;;6.50;;
8060;SDS011;4073;42.626;25.386;2023-08-30T09:52:42;10.63;;;6.33;;
8060;SDS011;4073;42.626;25.386;2023-08-30T09:55:08;8.70;;;5.93;;
8060;SDS011;4073;42.626;25.386;2023-08-30T09:57:34;9.33;;;6.33;;
8060;SDS011;4073;42.626;25.386;2023-08-30T10:00:01;7.33;;;6.07;;
8060;SDS011;4073;42.626;25.386;2023-08-30T10:02:29;8.67;;;5.90;;
8060;SDS011;4073;42.626;25.386;2023-08-30T10:04:56;6.30;;;5.70;;
8060;SDS011;4073;42.626;25.386;2023-08-30T10:07:22;9.13;;;5.90;;
8060;SDS011;4073;42.626;25.386;2023-08-30T10:09:50;7.00;;;6.40;;
8060;SDS011;4073;42.626;25.386;2023-08-30T10:12:18;6.47;;;5.57;;
8060;SDS011;4073;42.626;25.386;2023-08-30T10:14:46;7.57;;;5.83;;
8060;SDS011;4073;42.626;25.386;2023-08-30T10:17:12;10.50;;;6.67;;
8060;SDS011;4073;42.626;25.386;2023-08-30T10:19:41;6.67;;;5.93;;
8060;SDS011;4073;42.626;25.386;2023-08-30T10:22:08;9.37;;;5.93;;
8060;SDS011;4073;42.626;25.386;2023-08-30T10:24:41;6.40;;;5.83;;
8060;SDS011;4073;42.626;25.386;2023-08-30T10:27:09;7.77;;;5.70;;
8060;SDS011;4073;42.626;25.386;2023-08-30T10:29:36;6.77;;;5.90;;
8060;SDS011;4073;42.626;25.386;2023-08-30T10:32:05;9.27;;;5.60;;
8060;SDS011;4073;42.626;25.386;2023-08-30T10:34:32;8.57;;;6.73;;
8060;SDS011;4073;42.626;25.386;2023-08-30T10:36:59;6.97;;;5.80;;
8060;SDS011;4073;42.626;25.386;2023-08-30T10:39:36;7.87;;;6.13;;
8060;SDS011;4073;42.626;25.386;2023-08-30T10:42:15;6.63;;;5.60;;
8060;SDS011;4073;42.626;25.386;2023-08-30T10:47:22;6.80;;;5.60;;
8060;SDS011;4073;42.626;25.386;2023-08-30T10:49:58;6.87;;;5.60;;
8060;SDS011;4073;42.626;25.386;2023-08-30T10:52:27;6.07;;;5.57;;
8060;SDS011;4073;42.626;25.386;2023-08-30T10:55:16;7.30;;;5.67;;
8060;SDS011;4073;42.626;25.386;2023-08-30T10:57:42;7.07;;;6.27;;
8060;SDS011;4073;42.626;25.386;2023-08-30T11:02:36;6.30;;;5.80;;
8060;SDS011;4073;42.626;25.386;2023-08-30T11:05:04;8.23;;;5.60;;
8060;SDS011;4073;42.626;25.386;2023-08-30T11:07:32;10.40;;;6.40;;
8060;SDS011;4073;42.626;25.386;2023-08-30T11:09:57;6.47;;;5.83;;
8060;SDS011;4073;42.626;25.386;2023-08-30T11:12:23;6.80;;;5.73;;
8060;SDS011;4073;42.626;25.386;2023-08-30T11:14:51;6.63;;;5.30;;
8060;SDS011;4073;42.626;25.386;2023-08-30T11:17:17;5.90;;;5.37;;
8060;SDS011;4073;42.626;25.386;2023-08-30T11:19:43;7.13;;;5.27;;
8060;SDS011;4073;42.626;25.386;2023-08-30T11:22:09;8.93;;;6.20;;
8060;SDS011;4073;42.626;25.386;2023-08-30T11:24:35;5.87;;;5.30;;
8060;SDS011;4073;42.626;25.386;2023-08-30T11:27:01;7.23;;;5.93;;
8060;SDS011;4073;42.626;25.386;2023-08-30T11:29:27;7.13;;;6.03;;
8060;SDS011;4073;42.626;25.386;2023-08-30T11:31:53;6.77;;;5.83;;
8060;SDS011;4073;42.626;25.386;2023-08-30T11:34:21;8.73;;;6.40;;
8060;SDS011;4073;42.626;25.386;2023-08-30T11:36:48;7.27;;;6.10;;
8060;SDS011;4073;42.626;25.386;2023-08-30T11:39:18;8.67;;;5.93;;
8060;SDS011;4073;42.626;25.386;2023-08-30T11:41:44;8.33;;;6.27;;
8060;SDS011;4073;42.626;25.386;2023-08-30T11:44:10;8.93;;;5.80;;
8060;SDS011;4073;42.626;25.386;2023-08-30T11:46:35;8.60;;;5.80;;
8060;SDS011;4073;42.626;25.386;2023-08-30T11:49:01;7.00;;;5.90;;
8060;SDS011;4073;42.626;25.386;2023-08-30T11:51:28;8.47;;;5.73;;
8060;SDS011;4073;42.626;25.386;2023-08-30T11:53:54;7.67;;;5.93;;
8060;SDS011;4073;42.626;25.386;2023-08-30T11:56:21;6.47;;;5.87;;
8060;SDS011;4073;42.626;25.386;2023-08-30T11:58:47;9.17;;;5.60;;
8060;SDS011;4073;42.626;25.386;2023-08-30T12:01:13;5.97;;;5.37;;
8060;SDS011;4073;42.626;25.386;2023-08-30T12:03:39;9.77;;;5.47;;
8060;SDS011;4073;42.626;25.386;2023-08-30T12:06:09;6.40;;;5.07;;
8060;SDS011;4073;42.626;25.386;2023-08-30T12:08:35;6.40;;;5.60;;
8060;SDS011;4073;42.626;25.386;2023-08-30T12:11:00;5.90;;;5.37;;
8060;SDS011;4073;42.626;25.386;2023-08-30T12:13:27;8.10;;;5.67;;
8060;SDS011;4073;42.626;25.386;2023-08-30T12:15:54;6.70;;;5.37;;
8060;SDS011;4073;42.626;25.386;2023-08-30T12:18:21;6.60;;;5.20;;
8060;SDS011;4073;42.626;25.386;2023-08-30T12:20:54;6.77;;;5.40;;
8060;SDS011;4073;42.626;25.386;2023-08-30T12:23:25;7.00;;;5.27;;
8060;SDS011;4073;42.626;25.386;2023-08-30T12:25:58;7.37;;;5.47;;
8060;SDS011;4073;42.626;25.386;2023-08-30T12:28:31;8.57;;;5.67;;
8060;SDS011;4073;42.626;25.386;2023-08-30T12:30:58;10.93;;;6.50;;
8060;SDS011;4073;42.626;25.386;2023-08-30T12:33:24;9.03;;;5.70;;
8060;SDS011;4073;42.626;25.386;2023-08-30T12:35:50;9.47;;;5.57;;
8060;SDS011;4073;42.626;25.386;2023-08-30T12:38:16;7.60;;;5.43;;
8060;SDS011;4073;42.626;25.386;2023-08-30T12:40:45;6.27;;;5.67;;
8060;SDS011;4073;42.626;25.386;2023-08-30T12:43:15;5.70;;;5.20;;
8060;SDS011;4073;42.626;25.386;2023-08-30T12:45:42;7.10;;;6.20;;
8060;SDS011;4073;42.626;25.386;2023-08-30T12:48:08;6.30;;;5.70;;
8060;SDS011;4073;42.626;25.386;2023-08-30T12:50:40;6.37;;;5.27;;
8060;SDS011;4073;42.626;25.386;2023-08-30T12:53:08;6.87;;;5.80;;
8060;SDS011;4073;42.626;25.386;2023-08-30T12:55:34;22.93;;;16.73;;
8060;SDS011;4073;42.626;25.386;2023-08-30T12:58:00;11.57;;;8.97;;
8060;SDS011;4073;42.626;25.386;2023-08-30T13:00:26;9.27;;;7.10;;
8060;SDS011;4073;42.626;25.386;2023-08-30T13:02:51;9.27;;;6.70;;
8060;SDS011;4073;42.626;25.386;2023-08-30T13:05:17;7.10;;;6.40;;
8060;SDS011;4073;42.626;25.386;2023-08-30T13:07:43;10.60;;;6.13;;
8060;SDS011;4073;42.626;25.386;2023-08-30T13:10:09;6.93;;;6.20;;
8060;SDS011;4073;42.626;25.386;2023-08-30T13:12:35;7.00;;;6.40;;
8060;SDS011;4073;42.626;25.386;2023-08-30T13:15:01;7.73;;;6.70;;
8060;SDS011;4073;42.626;25.386;2023-08-30T13:17:27;9.73;;;6.43;;
8060;SDS011;4073;42.626;25.386;2023-08-30T13:19:52;7.90;;;6.40;;
8060;SDS011;4073;42.626;25.386;2023-08-30T13:22:18;13.87;;;6.57;;
8060;SDS011;4073;42.626;25.386;2023-08-30T13:24:44;6.83;;;6.20;;
8060;SDS011;4073;42.626;25.386;2023-08-30T13:27:10;6.90;;;6.30;;
8060;SDS011;4073;42.626;25.386;2023-08-30T13:29:35;9.20;;;7.57;;
8060;SDS011;4073;42.626;25.386;2023-08-30T13:32:01;7.40;;;6.70;;
8060;SDS011;4073;42.626;25.386;2023-08-30T13:34:27;8.77;;;7.13;;
8060;SDS011;4073;42.626;25.386;2023-08-30T13:36:52;7.53;;;6.83;;
8060;SDS011;4073;42.626;25.386;2023-08-30T13:39:18;7.27;;;6.60;;
8060;SDS011;4073;42.626;25.386;2023-08-30T13:41:45;8.83;;;7.17;;
8060;SDS011;4073;42.626;25.386;2023-08-30T13:44:11;8.23;;;7.33;;
8060;SDS011;4073;42.626;25.386;2023-08-30T13:46:37;11.60;;;7.90;;
8060;SDS011;4073;42.626;25.386;2023-08-30T13:49:03;8.90;;;8.03;;
8060;SDS011;4073;42.626;25.386;2023-08-30T13:51:28;12.87;;;8.03;;
8060;SDS011;4073;42.626;25.386;2023-08-30T13:53:54;10.37;;;7.67;;
8060;SDS011;4073;42.626;25.386;2023-08-30T13:56:19;10.47;;;8.37;;
8060;SDS011;4073;42.626;25.386;2023-08-30T13:58:45;8.67;;;7.73;;
8060;SDS011;4073;42.626;25.386;2023-08-30T14:01:11;11.27;;;7.57;;
8060;SDS011;4073;42.626;25.386;2023-08-30T14:03:37;10.17;;;8.80;;
8060;SDS011;4073;42.626;25.386;2023-08-30T14:06:03;18.13;;;10.40;;
8060;SDS011;4073;42.626;25.386;2023-08-30T14:08:28;12.00;;;8.27;;
8060;SDS011;4073;42.626;25.386;2023-08-30T14:10:54;9.83;;;8.70;;
8060;SDS011;4073;42.626;25.386;2023-08-30T14:13:20;27.10;;;18.93;;
8060;SDS011;4073;42.626;25.386;2023-08-30T14:15:46;13.17;;;9.00;;
8060;SDS011;4073;42.626;25.386;2023-08-30T14:18:12;9.00;;;8.10;;
8060;SDS011;4073;42.626;25.386;2023-08-30T14:20:37;12.80;;;8.13;;
8060;SDS011;4073;42.626;25.386;2023-08-30T14:23:03;9.77;;;8.10;;
8060;SDS011;4073;42.626;25.386;2023-08-30T14:25:29;9.23;;;7.80;;
8060;SDS011;4073;42.626;25.386;2023-08-30T14:27:54;12.70;;;7.97;;
8060;SDS011;4073;42.626;25.386;2023-08-30T14:30:20;10.27;;;7.80;;
8060;SDS011;4073;42.626;25.386;2023-08-30T14:32:46;8.60;;;7.80;;
8060;SDS011;4073;42.626;25.386;2023-08-30T14:35:12;11.17;;;8.43;;
8060;SDS011;4073;42.626;25.386;2023-08-30T14:37:37;9.50;;;7.87;;
8060;SDS011;4073;42.626;25.386;2023-08-30T14:40:04;8.97;;;8.07;;
8060;SDS011;4073;42.626;25.386;2023-08-30T14:42:32;12.10;;;8.53;;
8060;SDS011;4073;42.626;25.386;2023-08-30T14:44:57;12.00;;;8.50;;
8060;SDS011;4073;42.626;25.386;2023-08-30T14:47:23;11.73;;;8.50;;
8060;SDS011;4073;42.626;25.386;2023-08-30T14:49:49;16.43;;;8.20;;
8060;SDS011;4073;42.626;25.386;2023-08-30T14:52:15;11.17;;;8.57;;
8060;SDS011;4073;42.626;25.386;2023-08-30T14:54:41;15.73;;;8.23;;
8060;SDS011;4073;42.626;25.386;2023-08-30T14:57:08;9.13;;;7.70;;
8060;SDS011;4073;42.626;25.386;2023-08-30T14:59:33;11.40;;;8.20;;
8060;SDS011;4073;42.626;25.386;2023-08-30T15:01:59;12.90;;;8.63;;
8060;SDS011;4073;42.626;25.386;2023-08-30T15:04:24;10.93;;;8.47;;
8060;SDS011;4073;42.626;25.386;2023-08-30T15:06:50;10.60;;;9.00;;